createdAt,value
2019-02-19T00:02:13.150Z,18.40
2019-02-19T00:04:43.903Z,19.30
2019-02-19T00:07:14.552Z,17.73
2019-02-19T00:09:45.410Z,19.60
2019-02-19T00:12:16.172Z,19.90
2019-02-19T00:14:46.921Z,19.82
2019-02-19T00:17:17.780Z,17.48
2019-02-19T00:19:48.525Z,18.92
2019-02-19T00:22:20.231Z,16.73
2019-02-19T00:24:51.059Z,17.23
2019-02-19T00:27:21.694Z,20.20
2019-02-19T00:29:52.563Z,22.35
2019-02-19T00:32:23.434Z,22.17
2019-02-19T00:34:54.154Z,22.55
2019-02-19T00:37:24.807Z,25.05
2019-02-19T00:39:55.566Z,24.60
2019-02-19T00:42:26.334Z,38.33
2019-02-19T00:44:57.394Z,32.98
2019-02-19T00:47:28.150Z,29.20
2019-02-19T00:49:58.903Z,24.07
2019-02-19T00:52:29.432Z,24.25
2019-02-19T00:57:30.037Z,22.35
2019-02-19T01:00:00.791Z,22.17
2019-02-19T01:02:31.530Z,22.77
2019-02-19T01:05:02.404Z,28.15
2019-02-19T01:07:33.156Z,25.48
2019-02-19T01:10:04.629Z,25.27
2019-02-19T01:12:35.099Z,24.23
2019-02-19T01:15:08.668Z,21.97
2019-02-19T01:17:39.016Z,20.77
2019-02-19T01:20:10.200Z,24.07
2019-02-19T01:22:41.974Z,24.12
2019-02-19T01:25:13.017Z,24.02
2019-02-19T01:27:43.790Z,23.38
2019-02-19T01:30:14.441Z,23.85
2019-02-19T01:32:45.276Z,22.95
2019-02-19T01:35:16.053Z,24.98
2019-02-19T01:40:16.434Z,23.90
2019-02-19T01:42:47.169Z,24.82
2019-02-19T01:45:17.838Z,22.87
2019-02-19T01:47:49.409Z,25.20
2019-02-19T01:50:20.042Z,26.50
2019-02-19T01:55:20.650Z,28.55
2019-02-19T01:57:51.280Z,26.93
2019-02-19T02:00:22.035Z,26.77
2019-02-19T02:02:52.896Z,26.23
2019-02-19T02:05:23.667Z,25.92
2019-02-19T02:07:54.315Z,24.23
2019-02-19T02:10:25.051Z,26.27
2019-02-19T02:12:55.926Z,26.77
2019-02-19T02:15:26.680Z,27.75
2019-02-19T02:17:57.538Z,26.40
2019-02-19T02:20:28.271Z,24.40
2019-02-19T02:22:59.946Z,25.57
2019-02-19T02:25:30.820Z,26.73
2019-02-19T02:28:01.576Z,28.92
2019-02-19T02:30:32.331Z,28.35
2019-02-19T02:33:03.183Z,28.23
2019-02-19T02:35:33.940Z,25.52
2019-02-19T02:38:04.589Z,28.20
2019-02-19T02:40:35.324Z,27.58
2019-02-19T02:43:06.080Z,25.52
2019-02-19T02:45:36.731Z,26.35
2019-02-19T02:48:07.405Z,26.10
2019-02-19T02:50:38.258Z,26.33
2019-02-19T02:53:08.995Z,27.15
2019-02-19T02:55:39.645Z,24.67
2019-02-19T02:58:10.314Z,26.42
2019-02-19T03:00:41.048Z,24.70
2019-02-19T03:03:11.907Z,25.55
2019-02-19T03:05:47.279Z,26.68
2019-02-19T03:08:17.932Z,24.75
2019-02-19T03:10:48.787Z,27.87
2019-02-19T03:13:19.520Z,24.52
2019-02-19T03:15:50.306Z,24.82
2019-02-19T03:18:20.945Z,26.65
2019-02-19T03:20:51.806Z,26.68
2019-02-19T03:23:23.460Z,26.85
2019-02-19T03:25:54.333Z,27.55
2019-02-19T03:28:24.964Z,27.32
2019-02-19T03:30:55.636Z,27.90
2019-02-19T03:33:26.581Z,28.12
2019-02-19T03:35:59.784Z,28.87
2019-02-19T03:38:30.760Z,26.30
2019-02-19T03:43:30.938Z,24.90
2019-02-19T03:46:01.674Z,24.55
2019-02-19T03:48:32.324Z,24.87
2019-02-19T03:51:03.018Z,27.10
2019-02-19T03:53:33.860Z,28.87
2019-02-19T03:56:04.614Z,28.62
2019-02-19T03:58:35.237Z,28.40
2019-02-19T04:01:05.900Z,27.35
2019-02-19T04:42:38.529Z,28.12
2019-02-19T04:45:46.440Z,30.70
2019-02-19T04:48:17.302Z,30.48
2019-02-19T04:50:48.053Z,35.95
2019-02-19T04:53:18.684Z,38.53
2019-02-19T04:55:49.561Z,35.65
2019-02-19T04:58:20.313Z,30.57
2019-02-19T05:00:50.944Z,31.45
2019-02-19T05:03:21.616Z,32.23
2019-02-19T05:05:52.472Z,33.23
2019-02-19T05:08:23.226Z,33.80
2019-02-19T05:10:53.984Z,31.40
2019-02-19T05:13:24.745Z,31.17
2019-02-19T05:15:56.920Z,32.33
2019-02-19T05:18:27.674Z,30.12
2019-02-19T05:20:58.308Z,29.30
2019-02-19T05:25:59.729Z,36.17
2019-02-19T05:28:30.488Z,29.55
2019-02-19T05:33:32.082Z,29.60
2019-02-19T05:36:02.951Z,28.80
2019-02-19T05:38:36.574Z,29.05
2019-02-19T05:41:07.199Z,32.85
2019-02-19T05:46:07.582Z,35.60
2019-02-19T05:48:38.336Z,38.17
2019-02-19T05:51:09.215Z,34.95
2019-02-19T05:53:40.067Z,36.93
2019-02-19T05:56:10.823Z,35.68
2019-02-19T05:58:41.456Z,37.45
2019-02-19T06:01:12.329Z,34.30
2019-02-19T06:03:43.064Z,34.83
2019-02-19T06:06:13.835Z,33.95
2019-02-19T06:08:46.106Z,31.68
2019-02-19T06:11:16.981Z,31.57
2019-02-19T06:13:47.718Z,28.95
2019-02-19T06:16:18.387Z,27.40
2019-02-19T06:18:49.241Z,28.20
2019-02-19T06:21:21.531Z,26.33
2019-02-19T06:23:52.896Z,27.15
2019-02-19T06:26:24.347Z,27.07
2019-02-19T06:28:57.721Z,26.95
2019-02-19T06:31:27.287Z,27.95
2019-02-19T06:33:58.063Z,28.75
2019-02-19T06:36:28.693Z,28.85
2019-02-19T06:38:59.567Z,28.30
2019-02-19T06:41:30.303Z,29.25
2019-02-19T06:44:01.073Z,28.38
2019-02-19T06:46:31.711Z,28.38
2019-02-19T06:49:02.690Z,25.60
2019-02-19T06:51:33.440Z,25.05
2019-02-19T06:54:04.177Z,22.70
2019-02-19T06:56:35.048Z,22.85
2019-02-19T06:59:05.906Z,24.55
2019-02-19T07:01:56.295Z,18.80
2019-02-19T07:04:28.462Z,21.02
2019-02-19T07:06:59.012Z,19.77
2019-02-19T07:09:29.903Z,21.07
2019-02-19T07:12:00.645Z,19.73
2019-02-19T07:14:31.391Z,16.65
2019-02-19T07:17:01.921Z,9.90
2019-02-19T07:19:32.797Z,7.90
2019-02-19T07:22:03.432Z,10.75
2019-02-19T07:24:34.204Z,12.18
2019-02-19T07:27:05.758Z,11.83
2019-02-19T07:29:36.537Z,10.43
2019-02-19T07:32:07.284Z,11.45
2019-02-19T07:34:38.138Z,11.68
2019-02-19T07:37:08.896Z,13.85
2019-02-19T07:39:39.527Z,12.50
2019-02-19T07:42:10.279Z,14.65
2019-02-19T07:44:41.155Z,13.70
2019-02-19T07:47:12.011Z,15.10
2019-02-19T07:52:12.396Z,13.20
2019-02-19T07:54:43.153Z,13.65
2019-02-19T07:57:13.990Z,13.45
2019-02-19T07:59:44.740Z,13.40
2019-02-19T08:04:45.447Z,8.83
2019-02-19T08:07:16.101Z,8.38
2019-02-19T08:12:16.463Z,6.45
2019-02-19T08:17:17.150Z,6.43
2019-02-19T08:19:48.858Z,6.22
2019-02-19T08:22:19.803Z,7.45
2019-02-19T08:24:50.555Z,6.65
2019-02-19T08:27:22.333Z,7.58
2019-02-19T08:29:53.087Z,8.23
2019-02-19T08:32:23.842Z,7.55
2019-02-19T08:34:54.575Z,8.43
2019-02-19T08:39:55.062Z,8.27
2019-02-19T08:44:55.649Z,9.13
2019-02-19T08:47:26.529Z,8.83
2019-02-19T08:49:58.075Z,9.35
2019-02-19T08:52:28.646Z,9.13
2019-02-19T08:54:59.401Z,8.60
2019-02-19T08:57:30.152Z,8.23
2019-02-19T09:00:01.015Z,8.88
2019-02-19T09:02:31.868Z,10.45
2019-02-19T09:05:02.499Z,9.60
2019-02-19T09:10:02.879Z,8.40
2019-02-19T09:15:03.571Z,7.17
2019-02-19T09:20:05.199Z,7.80
2019-02-19T09:22:35.639Z,7.62
2019-02-19T09:25:08.424Z,8.15
2019-02-19T09:27:39.239Z,6.83
2019-02-19T09:30:12.387Z,8.33
2019-02-19T09:32:42.859Z,7.42
2019-02-19T09:37:43.441Z,5.90
2019-02-19T09:42:44.012Z,5.90
2019-02-19T09:47:44.514Z,4.70
2019-02-19T09:50:15.249Z,3.85
2019-02-19T09:55:15.861Z,4.92
2019-02-19T10:00:16.322Z,4.55
2019-02-19T10:05:17.240Z,4.12
2019-02-19T10:07:47.969Z,4.35
2019-02-19T10:12:49.298Z,4.47
2019-02-19T10:17:49.754Z,3.70
2019-02-19T10:20:20.431Z,4.40
2019-02-19T10:22:51.060Z,4.87
2019-02-19T10:27:52.668Z,4.43
2019-02-19T10:30:23.347Z,3.72
2019-02-19T10:32:54.406Z,3.42
2019-02-19T10:37:54.886Z,2.77
2019-02-19T10:42:55.265Z,3.00
2019-02-19T10:45:26.950Z,3.35
2019-02-19T10:47:57.185Z,3.22
2019-02-19T10:52:57.772Z,4.43
2019-02-19T10:55:28.525Z,3.77
2019-02-19T11:00:28.910Z,3.70
2019-02-19T11:02:59.562Z,3.42
2019-02-19T11:07:59.822Z,4.40
2019-02-19T11:10:30.573Z,4.70
2019-02-19T11:13:00.836Z,4.15
2019-02-19T11:15:31.491Z,4.05
2019-02-19T11:20:31.973Z,4.27
2019-02-19T11:25:32.668Z,5.15
2019-02-19T11:33:05.128Z,4.40
2019-02-19T11:35:35.354Z,3.80
2019-02-19T11:40:35.856Z,3.50
2019-02-19T11:45:36.238Z,3.77
2019-02-19T11:48:06.671Z,4.83
2019-02-19T11:53:07.260Z,3.50
2019-02-19T11:58:08.763Z,3.70
2019-02-19T12:03:10.782Z,3.98
2019-02-19T12:05:41.435Z,3.85
2019-02-19T12:08:12.003Z,3.77
2019-02-19T12:13:12.589Z,3.00
2019-02-19T12:18:12.949Z,3.07
2019-02-19T12:23:13.351Z,4.70
2019-02-19T12:28:14.843Z,3.05
2019-02-19T12:30:45.513Z,3.10
2019-02-19T12:33:16.268Z,2.67
2019-02-19T12:38:16.753Z,3.00
2019-02-19T12:43:17.338Z,2.20
2019-02-19T12:48:17.837Z,4.40
2019-02-19T12:50:48.659Z,2.87
2019-02-19T12:55:49.064Z,2.98
2019-02-19T13:00:49.547Z,3.07
2019-02-19T13:05:50.033Z,2.63
2019-02-19T13:10:50.622Z,4.13
2019-02-19T13:13:21.273Z,2.83
2019-02-19T13:18:21.654Z,2.77
2019-02-19T13:23:22.036Z,3.52
2019-02-19T13:28:22.705Z,3.02
2019-02-19T13:30:53.362Z,3.25
2019-02-19T13:33:24.134Z,3.62
2019-02-19T13:35:54.886Z,4.33
2019-02-19T13:38:25.744Z,3.85
2019-02-19T13:43:26.309Z,3.00
2019-02-19T13:45:58.603Z,3.95
2019-02-19T13:50:59.104Z,3.90
2019-02-19T13:56:02.030Z,3.85
2019-02-19T13:58:32.478Z,3.77
2019-02-19T14:03:32.869Z,4.72
2019-02-19T14:08:33.354Z,5.93
2019-02-19T14:11:03.905Z,10.53
2019-02-19T14:16:09.201Z,5.03
2019-02-19T14:18:48.340Z,4.92
2019-02-19T14:21:35.666Z,5.17
2019-02-19T14:24:24.300Z,5.28
2019-02-19T14:27:13.070Z,6.80
2019-02-19T14:29:58.347Z,7.50
2019-02-19T14:32:33.600Z,5.37
2019-02-19T14:35:25.114Z,4.35
2019-02-19T14:38:13.646Z,5.03
2019-02-19T14:40:48.999Z,6.40
2019-02-19T14:43:39.823Z,13.50
2019-02-19T14:46:14.750Z,16.85
2019-02-19T14:49:02.397Z,15.32
2019-02-19T14:51:34.588Z,8.83
2019-02-19T14:54:06.870Z,7.70
2019-02-19T14:56:42.103Z,7.95
2019-02-19T14:59:17.460Z,7.40
2019-02-19T15:01:52.642Z,8.40
2019-02-19T15:04:27.785Z,5.90
2019-02-19T15:07:06.187Z,5.97
2019-02-19T15:09:41.441Z,5.42
2019-02-19T15:12:13.755Z,5.78
2019-02-19T15:15:04.023Z,6.80
2019-02-19T15:17:44.901Z,7.90
2019-02-19T15:20:33.070Z,7.22
2019-02-19T15:23:08.397Z,6.40
2019-02-19T15:29:19.732Z,5.37
2019-02-19T15:35:07.492Z,6.92
2019-02-19T15:37:48.497Z,6.50
2019-02-19T15:40:26.515Z,6.42
2019-02-19T15:42:58.900Z,5.53
2019-02-19T15:45:31.187Z,6.10
2019-02-19T15:48:21.679Z,6.12
2019-02-19T15:51:02.949Z,6.20
2019-02-19T15:53:41.171Z,6.65
2019-02-19T15:56:20.842Z,8.23
2019-02-19T15:58:59.041Z,9.23
2019-02-19T16:01:49.862Z,11.78
2019-02-19T16:04:34.101Z,9.98
2019-02-19T16:07:22.459Z,14.43
2019-02-19T16:09:54.756Z,16.37
2019-02-19T16:12:32.968Z,16.90
2019-02-19T16:15:20.518Z,19.48
2019-02-19T16:18:02.074Z,19.60
2019-02-19T16:20:37.349Z,12.73
2019-02-19T16:23:09.613Z,14.30
2019-02-19T16:25:56.834Z,16.57
2019-02-19T16:28:29.041Z,13.50
2019-02-19T16:31:13.078Z,14.05
2019-02-19T16:33:46.502Z,14.30
2019-02-19T16:36:37.102Z,13.53
2019-02-19T16:39:25.850Z,15.83
2019-02-19T16:42:11.167Z,15.98
2019-02-19T16:44:55.687Z,14.07
2019-02-19T16:47:30.331Z,13.90
2019-02-19T16:50:07.655Z,16.12
2019-02-19T16:52:42.658Z,14.93
2019-02-19T16:55:17.629Z,19.82
2019-02-19T16:57:49.713Z,24.52
2019-02-19T17:00:22.570Z,26.45
2019-02-19T17:03:01.789Z,42.23
2019-02-19T17:05:49.595Z,23.25
2019-02-19T17:08:40.081Z,16.23
2019-02-19T17:11:12.367Z,13.85
2019-02-19T17:13:58.025Z,14.45
2019-02-19T17:16:24.409Z,14.43
2019-02-19T17:18:59.441Z,19.65
2019-02-19T17:21:40.524Z,15.08
2019-02-19T17:24:29.275Z,17.00
2019-02-19T17:27:12.412Z,17.52
2019-02-19T17:29:49.964Z,19.48
2019-02-19T17:32:27.006Z,17.73
2019-02-19T17:35:16.590Z,19.07
2019-02-19T17:38:14.201Z,20.32
2019-02-19T17:40:38.264Z,31.27
2019-02-19T17:43:15.958Z,31.85
2019-02-19T17:45:51.116Z,25.15
2019-02-19T17:48:28.819Z,36.38
2019-02-19T17:51:13.408Z,27.32
2019-02-19T17:53:58.080Z,23.52
2019-02-19T17:56:36.576Z,19.20
2019-02-19T17:59:14.568Z,19.75
2019-02-19T18:01:46.876Z,22.48
2019-02-19T18:04:19.062Z,16.73
2019-02-19T18:06:54.191Z,15.32
2019-02-19T18:09:42.865Z,16.27
2019-02-19T18:12:18.118Z,16.45
2019-02-19T18:14:59.611Z,20.10
2019-02-19T18:17:50.309Z,22.62
2019-02-19T18:20:21.062Z,17.20
2019-02-19T18:22:51.566Z,16.65
2019-02-19T18:25:21.959Z,17.80
2019-02-19T18:27:52.797Z,18.77
2019-02-19T18:30:24.081Z,20.12
2019-02-19T18:32:55.016Z,21.70
2019-02-19T18:35:27.122Z,23.30
2019-02-19T18:37:57.876Z,25.43
2019-02-19T18:40:28.627Z,25.00
2019-02-19T18:42:59.567Z,20.43
2019-02-19T18:45:30.341Z,19.15
2019-02-19T18:48:01.095Z,19.87
2019-02-19T18:50:31.949Z,20.37
2019-02-19T18:53:02.712Z,23.47
2019-02-19T18:55:33.446Z,21.27
2019-02-19T19:00:34.045Z,19.70
2019-02-19T19:05:34.717Z,20.68
2019-02-19T19:08:05.389Z,22.32
2019-02-19T19:10:36.119Z,22.00
2019-02-19T19:13:06.995Z,32.00
2019-02-19T19:15:37.748Z,26.85
2019-02-19T19:18:08.401Z,27.93
2019-02-19T19:20:39.268Z,31.73
2019-02-19T19:23:10.020Z,28.35
2019-02-19T19:25:40.764Z,23.73
2019-02-19T19:28:11.604Z,25.65
2019-02-19T19:30:42.478Z,21.65
2019-02-19T19:33:13.230Z,20.02
2019-02-19T19:35:44.887Z,16.60
2019-02-19T19:38:15.350Z,13.70
2019-02-19T19:40:46.003Z,15.00
2019-02-19T19:43:16.843Z,16.00
2019-02-19T19:45:47.614Z,15.78
2019-02-19T19:48:18.365Z,17.20
2019-02-19T19:50:49.017Z,18.48
2019-02-19T19:53:19.873Z,15.35
2019-02-19T19:55:50.629Z,17.07
2019-02-19T19:58:21.382Z,18.67
2019-02-19T20:00:52.241Z,16.67
2019-02-19T20:03:23.094Z,15.85
2019-02-19T20:05:53.850Z,24.00
2019-02-19T20:08:24.501Z,24.65
2019-02-19T20:10:55.236Z,34.83
2019-02-19T20:13:26.111Z,29.85
2019-02-19T20:15:56.864Z,38.28
2019-02-19T20:18:27.718Z,33.80
2019-02-19T20:21:00.397Z,30.55
2019-02-19T20:23:31.172Z,24.02
2019-02-19T20:26:01.804Z,19.90
2019-02-19T20:31:05.893Z,33.38
2019-02-19T20:36:07.193Z,31.97
2019-02-19T20:38:38.046Z,38.30
2019-02-19T20:41:08.800Z,30.48
2019-02-19T20:43:39.669Z,29.85
2019-02-19T20:46:10.521Z,32.45
2019-02-19T20:48:41.351Z,22.52
2019-02-19T20:51:12.121Z,27.73
2019-02-19T20:53:42.774Z,33.18
2019-02-19T20:56:13.509Z,25.95
2019-02-19T20:58:44.270Z,19.62
2019-02-19T21:01:15.041Z,19.55
2019-02-19T21:03:45.689Z,14.45
2019-02-19T21:06:16.423Z,14.30
2019-02-19T21:08:47.198Z,17.98
2019-02-19T21:11:17.826Z,14.30
2019-02-19T21:16:18.422Z,11.10
2019-02-19T21:18:49.086Z,11.60
2019-02-19T21:21:19.940Z,10.28
2019-02-19T21:23:50.675Z,10.88
2019-02-19T21:26:21.449Z,9.85
2019-02-19T21:28:52.097Z,10.98
2019-02-19T21:31:22.958Z,11.48
2019-02-19T21:33:53.716Z,8.90
2019-02-19T21:36:25.364Z,9.10
2019-02-19T21:38:56.135Z,9.60
2019-02-19T21:41:26.788Z,10.88
2019-02-19T21:43:57.745Z,9.30
2019-02-19T21:46:28.502Z,8.63
2019-02-19T21:48:59.235Z,9.08
2019-02-19T21:51:29.785Z,9.25
2019-02-19T21:54:00.659Z,9.40
2019-02-19T21:56:31.415Z,9.65
2019-02-19T21:59:02.168Z,10.43
2019-02-19T22:01:32.817Z,10.32
2019-02-19T22:04:03.658Z,9.60
2019-02-19T22:06:34.428Z,8.23
2019-02-19T22:09:05.934Z,8.45
2019-02-19T22:11:36.226Z,7.65
2019-02-19T22:14:06.998Z,8.60
2019-02-19T22:16:37.752Z,7.60
2019-02-19T22:19:08.433Z,8.65
2019-02-19T22:21:40.775Z,8.73
2019-02-19T22:24:16.129Z,9.38
2019-02-19T22:26:46.798Z,8.88
2019-02-19T22:29:17.543Z,8.00
2019-02-19T22:31:48.404Z,9.58
2019-02-19T22:34:19.163Z,8.38
2019-02-19T22:36:50.957Z,8.98
2019-02-19T22:39:21.271Z,7.60
2019-02-19T22:44:21.956Z,7.55
2019-02-19T22:46:52.727Z,8.00
2019-02-19T22:49:23.588Z,7.40
2019-02-19T22:51:54.322Z,7.15
2019-02-19T22:54:26.624Z,7.75
2019-02-19T22:56:57.286Z,7.78
2019-02-19T22:59:28.117Z,7.67
2019-02-19T23:02:00.405Z,7.97
2019-02-19T23:04:31.469Z,8.08
2019-02-19T23:07:02.219Z,6.95
2019-02-19T23:09:34.505Z,6.97
2019-02-19T23:12:05.159Z,7.55
2019-02-19T23:14:37.158Z,11.28
2019-02-19T23:17:07.807Z,6.58
2019-02-19T23:19:38.660Z,7.37
2019-02-19T23:22:09.419Z,6.58
2019-02-19T23:24:40.172Z,6.03
2019-02-19T23:27:11.050Z,6.95
2019-02-19T23:29:41.884Z,6.17
2019-02-19T23:32:12.646Z,7.03
2019-02-19T23:34:43.305Z,8.98
2019-02-19T23:37:15.066Z,7.47
2019-02-19T23:39:45.821Z,7.05
2019-02-19T23:42:16.676Z,5.50
2019-02-19T23:44:47.515Z,4.97
2019-02-19T23:47:18.186Z,5.35
2019-02-19T23:49:49.028Z,5.35
2019-02-19T23:52:19.676Z,5.65
2019-02-19T23:54:50.431Z,5.62
2019-02-19T23:57:21.096Z,5.25
2019-02-19T23:59:51.963Z,4.65
